Time;durP1;ratioP1;P1;durP2;ratioP2;P2;SDS_P1;SDS_P2;PMS_P1;PMS_P2;Temp;Humidity;BMP_temperature;BMP_pressure;BME280_temperature;BME280_humidity;BME280_pressure;Samples;Min_cycle;Max_cycle;Signal;HPM_P1;HPM_P2
2023/10/17 00:00:28;;;;;;;;;;;;;;;;;;112373;211;41552;-45
2023/10/17 00:03:21;;;;;;;;;;;;;;;;;;112357;211;41520;-44
2023/10/17 00:05:56;;;;;;;;;;;;;;;;;;112401;211;39630;-47
2023/10/17 00:08:32;;;;;;;;;;;;;;;;;;112423;211;42951;-43
2023/10/17 00:11:12;;;;;;;;;;;;;;;;;;112195;211;175651;-45
2023/10/17 00:13:59;;;;;;;;;;;;;;;;;;112404;211;39114;-44
2023/10/17 00:16:33;;;;;;;;;;;;;;;;;;112252;211;175272;-43
2023/10/17 00:19:10;;;;;;;;;;;;;;;;;;112406;211;42953;-44
2023/10/17 00:21:43;;;;;;;;;;;;;;;;;;112386;211;41639;-45
2023/10/17 00:24:19;;;;;;;;;;;;;;;;;;112433;211;38703;-44
2023/10/17 00:26:52;;;;;;;;;;;;;;;;;;112375;211;39668;-42
2023/10/17 00:29:26;;;;;;;;;;;;;;;;;;112406;211;42987;-43
2023/10/17 00:32:00;;;;;;;;;;;;;;;;;;112304;211;41614;-46
2023/10/17 00:34:36;;;;;;;;;;;;;;;;;;112359;211;38988;-42
2023/10/17 00:37:11;;;;;;;;;;;;;;;;;;112364;211;39647;-47
2023/10/17 00:39:46;;;;;;;;;;;;;;;;;;112358;211;43066;-42
2023/10/17 00:42:34;;;;;;;;;;;;;;;;;;112344;211;42902;-42
2023/10/17 00:45:11;;;;;;;;;;;;;;;;;;112369;211;38825;-42
2023/10/17 00:47:45;;;;;;;;;;;;;;;;;;112424;211;39729;-45
2023/10/17 00:50:20;;;;;;;;;;;;;;;;;;112378;211;44040;-43
2023/10/17 00:52:53;;;;;;;;;;;;;;;;;;112394;211;42778;-43
2023/10/17 00:55:30;;;;;;;;;;;;;;;;;;112384;211;38803;-47
2023/10/17 00:58:06;;;;;;;;;;;;;;;;;;112398;211;39712;-43
2023/10/17 01:00:45;;;;;;;;;;;;;;;;;;112294;211;44059;-44
2023/10/17 01:03:20;;;;;;;;;;;;;;;;;;112370;211;41637;-44
2023/10/17 01:06:10;;;;;;;;;;;;;;;;;;112386;211;38698;-45
2023/10/17 01:08:48;;;;;;;;;;;;;;;;;;112436;211;39622;-44
2023/10/17 01:11:27;;;;;;;;;;;;;;;;;;112353;211;42836;-46
2023/10/17 01:14:04;;;;;;;;;;;;;;;;;;112376;211;41647;-44
2023/10/17 01:16:39;;;;;;;;;;;;;;;;;;112344;211;38825;-42
2023/10/17 01:19:14;;;;;;;;;;;;;;;;;;112482;211;39448;-44
2023/10/17 01:21:48;;;;;;;;;;;;;;;;;;112341;211;43603;-42
2023/10/17 01:24:22;;;;;;;;;;;;;;;;;;112228;211;175715;-46
2023/10/17 01:26:57;;;;;;;;;;;;;;;;;;112400;211;39045;-45
2023/10/17 01:29:34;;;;;;;;;;;;;;;;;;112376;211;39722;-42
2023/10/17 01:32:09;;;;;;;;;;;;;;;;;;112347;211;42654;-46
2023/10/17 01:34:43;;;;;;;;;;;;;;;;;;112416;211;41838;-46
2023/10/17 01:37:15;;;;;;;;;;;;;;;;;;112357;211;38722;-45
2023/10/17 01:39:51;;;;;;;;;;;;;;;;;;112384;211;40112;-43
2023/10/17 01:42:25;;;;;;;;;;;;;;;;;;112336;211;42968;-49
2023/10/17 01:45:00;;;;;;;;;;;;;;;;;;112304;211;41854;-49
2023/10/17 01:47:38;;;;;;;;;;;;;;;;;;112292;211;39152;-48
2023/10/17 01:50:14;;;;;;;;;;;;;;;;;;112263;211;39844;-48
2023/10/17 01:52:46;;;;;;;;;;;;;;;;;;112279;211;44175;-47
2023/10/17 01:55:25;;;;;;;;;;;;;;;;;;112320;211;43247;-46
2023/10/17 01:57:59;;;;;;;;;;;;;;;;;;112279;211;38885;-46
2023/10/17 02:00:38;;;;;;;;;;;;;;;;;;112263;211;39350;-46
2023/10/17 02:03:12;;;;;;;;;;;;;;;;;;112251;211;42796;-44
2023/10/17 02:05:48;;;;;;;;;;;;;;;;;;112461;211;41641;-44
2023/10/17 02:08:21;;;;;;;;;;;;;;;;;;112365;211;38747;-46
2023/10/17 02:10:56;;;;;;;;;;;;;;;;;;112428;211;39367;-45
2023/10/17 02:13:30;;;;;;;;;;;;;;;;;;112320;211;44064;-45
2023/10/17 02:16:03;;;;;;;;;;;;;;;;;;112343;211;41840;-45
2023/10/17 02:18:36;;;;;;;;;;;;;;;;;;112254;211;177430;-47
2023/10/17 02:21:12;;;;;;;;;;;;;;;;;;112373;211;40686;-48
2023/10/17 02:23:49;;;;;;;;;;;;;;;;;;112353;211;43759;-48
2023/10/17 02:26:28;;;;;;;;;;;;;;;;;;112395;211;41635;-48
2023/10/17 02:29:10;;;;;;;;;;;;;;;;;;112320;211;175718;-46
2023/10/17 02:31:47;;;;;;;;;;;;;;;;;;112369;211;39755;-48
2023/10/17 02:34:22;;;;;;;;;;;;;;;;;;112393;211;42742;-47
2023/10/17 02:36:55;;;;;;;;;;;;;;;;;;112235;211;175769;-46
2023/10/17 02:39:33;;;;;;;;;;;;;;;;;;112436;211;38419;-45
2023/10/17 02:42:10;;;;;;;;;;;;;;;;;;112372;211;39761;-46
2023/10/17 02:44:45;;;;;;;;;;;;;;;;;;112416;211;42854;-48
2023/10/17 02:47:22;;;;;;;;;;;;;;;;;;112343;211;41696;-48
2023/10/17 02:49:57;;;;;;;;;;;;;;;;;;112393;211;39938;-48
2023/10/17 02:52:31;;;;;;;;;;;;;;;;;;112396;211;39488;-46
2023/10/17 02:55:06;;;;;;;;;;;;;;;;;;112385;211;42838;-47
2023/10/17 02:57:41;;;;;;;;;;;;;;;;;;112379;211;43006;-48
2023/10/17 03:00:21;;;;;;;;;;;;;;;;;;112293;211;39141;-47
2023/10/17 03:02:56;;;;;;;;;;;;;;;;;;112283;211;39773;-45
2023/10/17 03:05:32;;;;;;;;;;;;;;;;;;112299;211;49153;-46
2023/10/17 03:08:15;;;;;;;;;;;;;;;;;;112399;211;41696;-46
2023/10/17 03:10:56;;;;;;;;;;;;;;;;;;112435;211;40062;-49
2023/10/17 03:13:39;;;;;;;;;;;;;;;;;;112455;211;40900;-49
2023/10/17 03:16:23;;;;;;;;;;;;;;;;;;112447;211;44062;-47
2023/10/17 03:18:58;;;;;;;;;;;;;;;;;;112471;211;42750;-48
2023/10/17 03:21:34;;;;;;;;;;;;;;;;;;112400;211;39852;-48
2023/10/17 03:24:12;;;;;;;;;;;;;;;;;;112341;211;40822;-47
2023/10/17 03:26:55;;;;;;;;;;;;;;;;;;112288;211;42569;-48
2023/10/17 03:29:28;;;;;;;;;;;;;;;;;;112339;211;41929;-48
2023/10/17 03:32:04;;;;;;;;;;;;;;;;;;112295;211;38775;-45
2023/10/17 03:34:37;;;;;;;;;;;;;;;;;;112225;211;177433;-45
2023/10/17 03:40:03;;;;;;;;;;;;;;;;;;112309;211;42939;-49
2023/10/17 03:42:44;;;;;;;;;;;;;;;;;;112303;211;38892;-49
2023/10/17 03:45:23;;;;;;;;;;;;;;;;;;112306;211;39865;-48
2023/10/17 03:48:13;;;;;;;;;;;;;;;;;;111782;211;635189;-48
2023/10/17 03:50:58;;;;;;;;;;;;;;;;;;112275;211;42776;-48
2023/10/17 03:53:36;;;;;;;;;;;;;;;;;;112349;211;38700;-49
2023/10/17 03:56:18;;;;;;;;;;;;;;;;;;112248;211;39637;-48
2023/10/17 03:58:57;;;;;;;;;;;;;;;;;;112279;211;42753;-49
2023/10/17 04:01:30;;;;;;;;;;;;;;;;;;112147;211;176766;-48
2023/10/17 04:04:07;;;;;;;;;;;;;;;;;;112309;211;38776;-48
2023/10/17 04:06:57;;;;;;;;;;;;;;;;;;112453;211;44743;-47
2023/10/17 04:09:37;;;;;;;;;;;;;;;;;;112293;211;42545;-48
2023/10/17 04:12:20;;;;;;;;;;;;;;;;;;112309;211;41391;-47
2023/10/17 04:14:58;;;;;;;;;;;;;;;;;;112377;211;38448;-48
2023/10/17 04:17:35;;;;;;;;;;;;;;;;;;112446;211;39638;-48
2023/10/17 04:20:13;;;;;;;;;;;;;;;;;;112391;211;42955;-47
2023/10/17 04:22:45;;;;;;;;;;;;;;;;;;112304;211;42996;-47
2023/10/17 04:25:32;;;;;;;;;;;;;;;;;;112277;211;38564;-47
2023/10/17 04:28:07;;;;;;;;;;;;;;;;;;112348;211;41097;-45
2023/10/17 04:30:46;;;;;;;;;;;;;;;;;;112398;211;42803;-47
2023/10/17 04:33:20;;;;;;;;;;;;;;;;;;112399;211;42919;-46
2023/10/17 04:36:00;;;;;;;;;;;;;;;;;;112374;211;38848;-49
2023/10/17 04:38:39;;;;;;;;;;;;;;;;;;112345;211;39507;-47
2023/10/17 04:41:25;;;;;;;;;;;;;;;;;;112350;211;44222;-48
2023/10/17 04:44:04;;;;;;;;;;;;;;;;;;112301;211;41674;-45
2023/10/17 04:46:49;;;;;;;;;;;;;;;;;;112339;211;38705;-48
2023/10/17 04:49:26;;;;;;;;;;;;;;;;;;112302;211;39571;-45
2023/10/17 04:52:06;;;;;;;;;;;;;;;;;;112316;211;44200;-44
2023/10/17 04:54:41;;;;;;;;;;;;;;;;;;112339;211;43283;-47
2023/10/17 04:57:18;;;;;;;;;;;;;;;;;;112383;211;38605;-48
2023/10/17 05:00:09;;;;;;;;;;;;;;;;;;112335;211;40990;-46
2023/10/17 05:02:54;;;;;;;;;;;;;;;;;;112352;211;42857;-45
2023/10/17 05:05:40;;;;;;;;;;;;;;;;;;112285;211;42073;-46
2023/10/17 05:08:18;;;;;;;;;;;;;;;;;;112334;211;44637;-49
2023/10/17 06:17:36;;;;;;;;;;;;;;;;;;112364;211;39673;-42
2023/10/17 06:20:14;;;;;;;;;;;;;;;;;;112352;211;43336;-44
2023/10/17 06:28:27;;;;;;;;;;;;;;;;;;112280;211;40011;-43
2023/10/17 06:33:45;;;;;;;;;;;;;;;;;;112288;211;43033;-43
2023/10/17 06:36:25;;;;;;;;;;;;;;;;;;112384;211;39774;-47
2023/10/17 06:39:07;;;;;;;;;;;;;;;;;;112312;211;40638;-44
2023/10/17 06:41:41;;;;;;;;;;;;;;;;;;112364;211;42511;-43
2023/10/17 06:44:21;;;;;;;;;;;;;;;;;;112378;211;41662;-44
2023/10/17 06:47:08;;;;;;;;;;;;;;;;;;112351;211;39163;-44
2023/10/17 06:50:16;;;;;;;;;;;;;;;;;;112369;211;39579;-46
2023/10/17 06:52:54;;;;;;;;;;;;;;;;;;112364;211;42918;-47
2023/10/17 06:55:29;;;;;;;;;;;;;;;;;;112363;211;41836;-46
2023/10/17 06:58:08;;;;;;;;;;;;;;;;;;112260;211;38721;-43
2023/10/17 07:00:44;;;;;;;;;;;;;;;;;;112334;211;45827;-38
2023/10/17 07:03:24;;;;;;;;;;;;;;;;;;112367;211;42729;-42
2023/10/17 07:06:11;;;;;;;;;;;;;;;;;;112347;211;41715;-35
2023/10/17 07:08:46;;;;;;;;;;;;;;;;;;112270;212;38795;-46
2023/10/17 07:11:29;;;;;;;;;;;;;;;;;;112409;211;39561;-38
2023/10/17 07:14:22;;;;;;;;;;;;;;;;;;112297;212;44458;-44
2023/10/17 07:17:09;;;;;;;;;;;;;;;;;;112324;212;43261;-46
2023/10/17 07:19:58;;;;;;;;;;;;;;;;;;112216;212;175562;-43
2023/10/17 07:22:36;;;;;;;;;;;;;;;;;;112395;211;39666;-46
2023/10/17 07:25:16;;;;;;;;;;;;;;;;;;112351;212;43010;-44
2023/10/17 07:27:52;;;;;;;;;;;;;;;;;;112410;212;41378;-43
2023/10/17 07:30:35;;;;;;;;;;;;;;;;;;112329;212;38894;-46
2023/10/17 07:33:08;;;;;;;;;;;;;;;;;;112351;211;40553;-46
2023/10/17 07:35:41;;;;;;;;;;;;;;;;;;112391;211;42564;-46
2023/10/17 07:38:14;;;;;;;;;;;;;;;;;;112384;212;41642;-45
2023/10/17 07:40:58;;;;;;;;;;;;;;;;;;112272;211;38535;-45
2023/10/17 07:43:36;;;;;;;;;;;;;;;;;;112396;211;39563;-46
2023/10/17 07:46:15;;;;;;;;;;;;;;;;;;112400;211;42761;-46
2023/10/17 07:48:49;;;;;;;;;;;;;;;;;;112385;211;42813;-42
2023/10/17 07:51:22;;;;;;;;;;;;;;;;;;112369;211;38836;-46
2023/10/17 07:53:58;;;;;;;;;;;;;;;;;;112425;211;39248;-45
2023/10/17 07:56:32;;;;;;;;;;;;;;;;;;112429;211;42813;-44
2023/10/17 07:59:08;;;;;;;;;;;;;;;;;;112397;211;41661;-41
2023/10/17 08:01:46;;;;;;;;;;;;;;;;;;112279;211;43688;-40
2023/10/17 08:04:29;;;;;;;;;;;;;;;;;;112305;211;39923;-37
2023/10/17 08:07:04;;;;;;;;;;;;;;;;;;112254;211;43016;-37
2023/10/17 08:09:41;;;;;;;;;;;;;;;;;;112303;211;42905;-38
2023/10/17 08:12:15;;;;;;;;;;;;;;;;;;112286;212;46465;-40
2023/10/17 08:14:50;;;;;;;;;;;;;;;;;;112321;212;39279;-40
2023/10/17 08:17:27;;;;;;;;;;;;;;;;;;112285;211;44703;-36
2023/10/17 08:20:09;;;;;;;;;;;;;;;;;;112394;211;41873;-39
2023/10/17 08:22:55;;;;;;;;;;;;;;;;;;112343;211;47519;-37
2023/10/17 08:25:30;;;;;;;;;;;;;;;;;;112338;211;39639;-37
2023/10/17 08:28:05;;;;;;;;;;;;;;;;;;112275;212;42990;-38
2023/10/17 08:30:39;;;;;;;;;;;;;;;;;;112205;212;41947;-39
2023/10/17 08:33:18;;;;;;;;;;;;;;;;;;112265;211;38792;-41
2023/10/17 08:36:01;;;;;;;;;;;;;;;;;;112379;211;39864;-43
2023/10/17 08:38:40;;;;;;;;;;;;;;;;;;112345;211;43107;-40
2023/10/17 08:41:13;;;;;;;;;;;;;;;;;;112375;211;42946;-37
2023/10/17 08:43:48;;;;;;;;;;;;;;;;;;112403;211;38720;-37
2023/10/17 08:46:21;;;;;;;;;;;;;;;;;;112360;211;39734;-42
2023/10/17 08:48:58;;;;;;;;;;;;;;;;;;112388;211;42580;-40
2023/10/17 08:51:31;;;;;;;;;;;;;;;;;;112366;211;41677;-41
2023/10/17 08:54:05;;;;;;;;;;;;;;;;;;112330;211;40991;-37
2023/10/17 08:56:38;;;;;;;;;;;;;;;;;;112371;211;39514;-37
2023/10/17 08:59:15;;;;;;;;;;;;;;;;;;112287;211;42491;-37
2023/10/17 09:02:03;;;;;;;;;;;;;;;;;;112194;212;41809;-37
2023/10/17 09:04:38;;;;;;;;;;;;;;;;;;112245;212;38754;-36
2023/10/17 09:07:19;;;;;;;;;;;;;;;;;;112246;212;40081;-37
2023/10/17 09:09:55;;;;;;;;;;;;;;;;;;112248;212;42790;-36
2023/10/17 09:12:29;;;;;;;;;;;;;;;;;;112246;212;41846;-37
2023/10/17 09:15:02;;;;;;;;;;;;;;;;;;112147;212;175252;-37
2023/10/17 09:17:39;;;;;;;;;;;;;;;;;;112093;212;177299;-37
2023/10/17 09:20:16;;;;;;;;;;;;;;;;;;112273;212;42801;-36
2023/10/17 09:22:48;;;;;;;;;;;;;;;;;;112196;212;41808;-38
2023/10/17 09:25:25;;;;;;;;;;;;;;;;;;112348;211;39208;-39
2023/10/17 09:28:00;;;;;;;;;;;;;;;;;;112421;211;39749;-43
2023/10/17 09:30:36;;;;;;;;;;;;;;;;;;112335;211;42991;-41
2023/10/17 09:33:13;;;;;;;;;;;;;;;;;;112302;211;41896;-36
2023/10/17 09:35:48;;;;;;;;;;;;;;;;;;112426;211;38685;-40
2023/10/17 09:38:22;;;;;;;;;;;;;;;;;;112412;211;39631;-37
2023/10/17 09:41:00;;;;;;;;;;;;;;;;;;112387;211;44876;-36
2023/10/17 09:43:51;;;;;;;;;;;;;;;;;;112328;211;41824;-39
2023/10/17 09:46:27;;;;;;;;;;;;;;;;;;112383;211;39829;-35
2023/10/17 09:49:03;;;;;;;;;;;;;;;;;;112368;211;39608;-34
2023/10/17 09:51:37;;;;;;;;;;;;;;;;;;112451;211;42764;-35
2023/10/17 09:54:13;;;;;;;;;;;;;;;;;;112351;211;41824;-40
2023/10/17 09:56:48;;;;;;;;;;;;;;;;;;112390;210;38853;-46
2023/10/17 09:59:26;;;;;;;;;;;;;;;;;;112321;211;39423;-42
2023/10/17 10:01:59;;;;;;;;;;;;;;;;;;112445;211;43161;-38
2023/10/17 10:04:32;;;;;;;;;;;;;;;;;;112334;211;47606;-37
2023/10/17 10:07:22;;;;;;;;;;;;;;;;;;112400;210;40040;-38
2023/10/17 10:09:59;;;;;;;;;;;;;;;;;;112266;212;39571;-37
2023/10/17 10:13:06;;;;;;;;;;;;;;;;;;112233;212;42817;-37
2023/10/17 10:15:53;;;;;;;;;;;;;;;;;;112283;212;42925;-38
2023/10/17 10:18:57;;;;;;;;;;;;;;;;;;112303;212;39975;-38
2023/10/17 10:21:55;;;;;;;;;;;;;;;;;;112308;212;40622;-38
2023/10/17 10:24:29;;;;;;;;;;;;;;;;;;112239;211;43059;-40
2023/10/17 10:27:20;;;;;;;;;;;;;;;;;;112356;211;41825;-42
2023/10/17 10:29:55;;;;;;;;;;;;;;;;;;112384;211;38679;-36
2023/10/17 10:32:37;;;;;;;;;;;;;;;;;;112343;211;39698;-34
2023/10/17 10:35:14;;;;;;;;;;;;;;;;;;112327;211;48632;-33
2023/10/17 10:37:54;;;;;;;;;;;;;;;;;;112319;210;42991;-33
2023/10/17 10:40:32;;;;;;;;;;;;;;;;;;111619;211;895826;-32
2023/10/17 10:43:11;;;;;;;;;;;;;;;;;;112364;211;39600;-32
2023/10/17 10:45:47;;;;;;;;;;;;;;;;;;112354;211;48730;-34
2023/10/17 10:48:23;;;;;;;;;;;;;;;;;;112393;211;41650;-34
2023/10/17 10:51:00;;;;;;;;;;;;;;;;;;112331;211;38442;-31
2023/10/17 10:53:39;;;;;;;;;;;;;;;;;;112235;211;39604;-33
2023/10/17 10:56:13;;;;;;;;;;;;;;;;;;112197;211;196084;-32
2023/10/17 10:58:51;;;;;;;;;;;;;;;;;;112338;211;42122;-34
2023/10/17 11:01:25;;;;;;;;;;;;;;;;;;112352;211;38754;-32
2023/10/17 11:03:58;;;;;;;;;;;;;;;;;;112376;211;39569;-33
2023/10/17 11:06:35;;;;;;;;;;;;;;;;;;112380;211;42785;-32
2023/10/17 11:09:16;;;;;;;;;;;;;;;;;;112330;211;41635;-32
2023/10/17 11:11:53;;;;;;;;;;;;;;;;;;112362;211;40005;-33
2023/10/17 11:14:30;;;;;;;;;;;;;;;;;;112337;211;39567;-38
2023/10/17 11:17:03;;;;;;;;;;;;;;;;;;112386;211;42842;-33
2023/10/17 11:19:36;;;;;;;;;;;;;;;;;;112324;211;41627;-33
2023/10/17 11:22:09;;;;;;;;;;;;;;;;;;112326;211;38762;-34
2023/10/17 11:24:44;;;;;;;;;;;;;;;;;;112322;211;39950;-35
2023/10/17 11:27:19;;;;;;;;;;;;;;;;;;112339;211;42791;-35
2023/10/17 11:29:55;;;;;;;;;;;;;;;;;;112317;211;41933;-36
2023/10/17 11:32:31;;;;;;;;;;;;;;;;;;112354;211;38445;-36
2023/10/17 11:35:19;;;;;;;;;;;;;;;;;;112279;211;40875;-36
2023/10/17 11:37:54;;;;;;;;;;;;;;;;;;112329;211;42965;-36
2023/10/17 11:40:46;;;;;;;;;;;;;;;;;;112353;211;42935;-36
2023/10/17 11:43:28;;;;;;;;;;;;;;;;;;112371;211;40058;-36
2023/10/17 11:46:03;;;;;;;;;;;;;;;;;;112354;211;39812;-36
2023/10/17 11:48:36;;;;;;;;;;;;;;;;;;111728;211;645230;-37
2023/10/17 11:51:15;;;;;;;;;;;;;;;;;;112307;211;41672;-37
2023/10/17 11:54:04;;;;;;;;;;;;;;;;;;112345;211;38706;-37
2023/10/17 11:56:49;;;;;;;;;;;;;;;;;;112323;211;39564;-37
2023/10/17 11:59:27;;;;;;;;;;;;;;;;;;112344;211;42791;-37
2023/10/17 12:02:04;;;;;;;;;;;;;;;;;;112297;211;42394;-37
2023/10/17 12:04:37;;;;;;;;;;;;;;;;;;112383;211;38753;-37
2023/10/17 12:07:15;;;;;;;;;;;;;;;;;;112241;211;47769;-40
2023/10/17 12:09:47;;;;;;;;;;;;;;;;;;112455;211;42865;-39
2023/10/17 12:12:20;;;;;;;;;;;;;;;;;;112321;211;42898;-34
2023/10/17 12:14:54;;;;;;;;;;;;;;;;;;112345;211;39067;-35
2023/10/17 12:17:27;;;;;;;;;;;;;;;;;;112289;211;46737;-39
2023/10/17 12:20:10;;;;;;;;;;;;;;;;;;112339;211;43259;-37
2023/10/17 12:22:45;;;;;;;;;;;;;;;;;;112198;211;175581;-38
2023/10/17 12:25:23;;;;;;;;;;;;;;;;;;112274;211;38714;-38
2023/10/17 12:27:56;;;;;;;;;;;;;;;;;;112355;211;46962;-36
2023/10/17 12:30:35;;;;;;;;;;;;;;;;;;112356;211;43841;-41
2023/10/17 12:33:10;;;;;;;;;;;;;;;;;;112344;211;41648;-35
2023/10/17 12:35:50;;;;;;;;;;;;;;;;;;112285;211;39998;-37
2023/10/17 12:38:25;;;;;;;;;;;;;;;;;;112323;211;39634;-42
2023/10/17 12:41:03;;;;;;;;;;;;;;;;;;112371;211;42933;-37
2023/10/17 12:43:36;;;;;;;;;;;;;;;;;;112276;211;41385;-37
2023/10/17 12:46:15;;;;;;;;;;;;;;;;;;112336;211;38515;-41
2023/10/17 12:48:51;;;;;;;;;;;;;;;;;;112333;211;39709;-37
2023/10/17 12:51:27;;;;;;;;;;;;;;;;;;112296;211;42796;-36
2023/10/17 12:54:04;;;;;;;;;;;;;;;;;;112369;211;42224;-39
2023/10/17 12:56:43;;;;;;;;;;;;;;;;;;112367;211;39966;-37
2023/10/17 12:59:18;;;;;;;;;;;;;;;;;;112409;211;40815;-40
2023/10/17 13:01:52;;;;;;;;;;;;;;;;;;112337;211;43918;-40
2023/10/17 13:04:27;;;;;;;;;;;;;;;;;;112347;211;42776;-37
2023/10/17 13:07:03;;;;;;;;;;;;;;;;;;112332;211;38622;-43
2023/10/17 13:09:37;;;;;;;;;;;;;;;;;;112382;211;40042;-44
2023/10/17 13:12:09;;;;;;;;;;;;;;;;;;112309;211;43113;-43
2023/10/17 13:14:43;;;;;;;;;;;;;;;;;;112367;211;41654;-40
2023/10/17 13:17:18;;;;;;;;;;;;;;;;;;112299;211;38591;-43
2023/10/17 13:19:58;;;;;;;;;;;;;;;;;;113001;208;39597;-43
2023/10/17 13:22:46;;;;;;;;;;;;;;;;;;111616;211;897000;-44
2023/10/17 13:25:20;;;;;;;;;;;;;;;;;;114072;211;41864;-41
2023/10/17 13:27:52;;;;;;;;;;;;;;;;;;112615;211;37692;-46
2023/10/17 13:30:27;;;;;;;;;;;;;;;;;;112319;211;39706;-46
2023/10/17 13:33:06;;;;;;;;;;;;;;;;;;112446;211;44033;-45
2023/10/17 13:35:44;;;;;;;;;;;;;;;;;;112280;211;42012;-43
2023/10/17 13:38:20;;;;;;;;;;;;;;;;;;112403;211;38736;-44
2023/10/17 13:41:09;;;;;;;;;;;;;;;;;;112554;211;39736;-46
2023/10/17 13:43:45;;;;;;;;;;;;;;;;;;112459;211;42835;-43
2023/10/17 13:46:18;;;;;;;;;;;;;;;;;;112557;211;41622;-44
2023/10/17 13:48:53;;;;;;;;;;;;;;;;;;112533;211;38875;-44
2023/10/17 13:51:34;;;;;;;;;;;;;;;;;;111827;211;897833;-46
2023/10/17 13:54:07;;;;;;;;;;;;;;;;;;112558;211;42828;-44
2023/10/17 13:56:43;;;;;;;;;;;;;;;;;;112528;211;41520;-44
2023/10/17 13:59:38;;;;;;;;;;;;;;;;;;112515;211;38762;-44
2023/10/17 14:02:17;;;;;;;;;;;;;;;;;;112580;211;39678;-43
2023/10/17 14:04:54;;;;;;;;;;;;;;;;;;112564;211;43000;-43
2023/10/17 14:07:30;;;;;;;;;;;;;;;;;;112412;211;41642;-44
2023/10/17 14:10:10;;;;;;;;;;;;;;;;;;112530;211;44881;-45
2023/10/17 14:12:46;;;;;;;;;;;;;;;;;;112577;211;39320;-40
2023/10/17 14:15:18;;;;;;;;;;;;;;;;;;112560;211;42802;-40
2023/10/17 14:17:54;;;;;;;;;;;;;;;;;;112431;211;41776;-41
2023/10/17 14:20:38;;;;;;;;;;;;;;;;;;112482;211;46446;-41
2023/10/17 14:23:26;;;;;;;;;;;;;;;;;;112552;211;39494;-42
2023/10/17 14:26:03;;;;;;;;;;;;;;;;;;112520;211;42822;-40
2023/10/17 14:28:36;;;;;;;;;;;;;;;;;;112420;211;41648;-40
2023/10/17 14:31:14;;;;;;;;;;;;;;;;;;112473;211;177306;-38
2023/10/17 14:33:55;;;;;;;;;;;;;;;;;;112613;211;39784;-40
2023/10/17 14:36:31;;;;;;;;;;;;;;;;;;112570;211;42759;-43
2023/10/17 14:39:09;;;;;;;;;;;;;;;;;;112555;211;42508;-46
2023/10/17 14:41:47;;;;;;;;;;;;;;;;;;112581;211;40015;-40
2023/10/17 14:44:20;;;;;;;;;;;;;;;;;;112585;211;39626;-44
2023/10/17 14:46:57;;;;;;;;;;;;;;;;;;112444;211;175603;-42
2023/10/17 14:49:32;;;;;;;;;;;;;;;;;;112452;211;41884;-43
2023/10/17 14:52:06;;;;;;;;;;;;;;;;;;112596;211;40042;-43
2023/10/17 14:54:42;;;;;;;;;;;;;;;;;;112641;211;40639;-40
2023/10/17 14:57:17;;;;;;;;;;;;;;;;;;112553;211;42896;-44
2023/10/17 14:59:57;;;;;;;;;;;;;;;;;;112552;211;41763;-44
2023/10/17 15:02:29;;;;;;;;;;;;;;;;;;112554;211;38507;-39
2023/10/17 15:05:07;;;;;;;;;;;;;;;;;;112587;211;39460;-39
2023/10/17 15:07:39;;;;;;;;;;;;;;;;;;112509;211;42764;-38
2023/10/17 15:10:15;;;;;;;;;;;;;;;;;;112549;211;41632;-38
2023/10/17 15:12:52;;;;;;;;;;;;;;;;;;112573;211;38814;-39
2023/10/17 15:15:29;;;;;;;;;;;;;;;;;;112354;211;175606;-38
2023/10/17 15:18:05;;;;;;;;;;;;;;;;;;112588;211;42849;-36
2023/10/17 15:20:38;;;;;;;;;;;;;;;;;;112516;211;41653;-36
2023/10/17 15:23:13;;;;;;;;;;;;;;;;;;112579;211;38832;-36
2023/10/17 15:25:57;;;;;;;;;;;;;;;;;;112562;211;39340;-37
2023/10/17 15:28:29;;;;;;;;;;;;;;;;;;112605;211;43940;-37
2023/10/17 15:31:09;;;;;;;;;;;;;;;;;;112526;211;41913;-37
2023/10/17 15:33:41;;;;;;;;;;;;;;;;;;112570;211;39202;-37
2023/10/17 15:36:14;;;;;;;;;;;;;;;;;;112604;211;40856;-37
2023/10/17 15:38:49;;;;;;;;;;;;;;;;;;112494;211;175681;-38
2023/10/17 15:41:23;;;;;;;;;;;;;;;;;;112543;211;41698;-37
2023/10/17 15:43:57;;;;;;;;;;;;;;;;;;112596;211;40006;-37
2023/10/17 15:46:28;;;;;;;;;;;;;;;;;;112659;211;39897;-36
2023/10/17 15:49:01;;;;;;;;;;;;;;;;;;112601;211;44144;-37
2023/10/17 15:51:39;;;;;;;;;;;;;;;;;;112400;211;44152;-39
2023/10/17 15:54:12;;;;;;;;;;;;;;;;;;112549;211;38748;-37
2023/10/17 15:56:45;;;;;;;;;;;;;;;;;;112657;211;39604;-37
2023/10/17 15:59:19;;;;;;;;;;;;;;;;;;112616;211;42988;-38
2023/10/17 16:01:53;;;;;;;;;;;;;;;;;;112600;211;41860;-37
2023/10/17 16:04:26;;;;;;;;;;;;;;;;;;112692;211;38572;-37
2023/10/17 16:06:59;;;;;;;;;;;;;;;;;;112586;211;39978;-37
2023/10/17 16:09:32;;;;;;;;;;;;;;;;;;112495;211;175586;-38
2023/10/17 16:12:05;;;;;;;;;;;;;;;;;;112541;211;41963;-37
2023/10/17 16:14:40;;;;;;;;;;;;;;;;;;112713;211;38448;-37
2023/10/17 16:17:13;;;;;;;;;;;;;;;;;;112694;211;39779;-37
2023/10/17 16:19:44;;;;;;;;;;;;;;;;;;112599;211;43176;-37
2023/10/17 16:22:16;;;;;;;;;;;;;;;;;;112531;211;43068;-37
2023/10/17 16:24:48;;;;;;;;;;;;;;;;;;112640;211;38633;-37
2023/10/17 16:27:23;;;;;;;;;;;;;;;;;;112639;211;40907;-37
2023/10/17 16:29:57;;;;;;;;;;;;;;;;;;112616;211;43221;-37
2023/10/17 16:32:30;;;;;;;;;;;;;;;;;;112582;211;41848;-37
2023/10/17 16:35:07;;;;;;;;;;;;;;;;;;112569;211;40001;-37
2023/10/17 16:37:39;;;;;;;;;;;;;;;;;;112632;211;41939;-37
2023/10/17 16:40:14;;;;;;;;;;;;;;;;;;112605;211;43517;-38
2023/10/17 16:42:46;;;;;;;;;;;;;;;;;;112582;211;41698;-37
2023/10/17 16:45:19;;;;;;;;;;;;;;;;;;112580;211;39059;-38
2023/10/17 16:47:56;;;;;;;;;;;;;;;;;;112538;211;39445;-38
2023/10/17 16:50:30;;;;;;;;;;;;;;;;;;112559;211;42976;-37
2023/10/17 16:53:05;;;;;;;;;;;;;;;;;;112567;211;41660;-43
2023/10/17 16:55:41;;;;;;;;;;;;;;;;;;112628;211;39007;-40
2023/10/17 16:58:15;;;;;;;;;;;;;;;;;;112490;212;39661;-36
2023/10/17 17:00:50;;;;;;;;;;;;;;;;;;112489;212;42863;-36
2023/10/17 17:03:27;;;;;;;;;;;;;;;;;;112488;212;41804;-36
2023/10/17 17:06:05;;;;;;;;;;;;;;;;;;112500;212;39002;-36
2023/10/17 17:08:38;;;;;;;;;;;;;;;;;;112376;212;175099;-36
2023/10/17 17:11:11;;;;;;;;;;;;;;;;;;112460;212;43007;-36
2023/10/17 17:13:44;;;;;;;;;;;;;;;;;;112377;212;47279;-36
2023/10/17 17:16:23;;;;;;;;;;;;;;;;;;112454;212;39856;-36
2023/10/17 17:18:59;;;;;;;;;;;;;;;;;;112494;212;39836;-36
2023/10/17 17:21:35;;;;;;;;;;;;;;;;;;112513;211;42782;-36
2023/10/17 17:24:12;;;;;;;;;;;;;;;;;;112631;211;49097;-36
2023/10/17 17:26:45;;;;;;;;;;;;;;;;;;112601;211;38728;-36
2023/10/17 17:29:23;;;;;;;;;;;;;;;;;;112632;211;39766;-36
2023/10/17 17:31:57;;;;;;;;;;;;;;;;;;112614;211;43186;-36
2023/10/17 17:34:33;;;;;;;;;;;;;;;;;;112646;211;47597;-36
2023/10/17 17:37:08;;;;;;;;;;;;;;;;;;112648;211;38927;-36
2023/10/17 17:39:45;;;;;;;;;;;;;;;;;;112574;211;41839;-36
2023/10/17 17:42:19;;;;;;;;;;;;;;;;;;112504;211;42838;-35
2023/10/17 17:44:52;;;;;;;;;;;;;;;;;;112643;211;43038;-35
2023/10/17 17:47:28;;;;;;;;;;;;;;;;;;112634;211;39041;-36
2023/10/17 17:50:06;;;;;;;;;;;;;;;;;;112590;211;39746;-37
2023/10/17 17:52:44;;;;;;;;;;;;;;;;;;112506;211;42745;-36
2023/10/17 17:55:16;;;;;;;;;;;;;;;;;;112658;211;41638;-36
2023/10/17 17:57:51;;;;;;;;;;;;;;;;;;112620;211;38883;-36
2023/10/17 18:00:32;;;;;;;;;;;;;;;;;;112592;211;40820;-36
2023/10/17 18:03:08;;;;;;;;;;;;;;;;;;112488;211;42999;-36
2023/10/17 18:05:47;;;;;;;;;;;;;;;;;;112579;211;41649;-36
2023/10/17 18:08:27;;;;;;;;;;;;;;;;;;112604;211;38859;-35
2023/10/17 18:11:01;;;;;;;;;;;;;;;;;;112645;211;39660;-35
2023/10/17 18:13:36;;;;;;;;;;;;;;;;;;112536;211;42771;-35
2023/10/17 18:16:11;;;;;;;;;;;;;;;;;;112635;211;41849;-36
2023/10/17 18:18:46;;;;;;;;;;;;;;;;;;112570;211;38786;-35
2023/10/17 18:21:23;;;;;;;;;;;;;;;;;;112527;211;193191;-35
2023/10/17 18:23:57;;;;;;;;;;;;;;;;;;112559;211;42986;-35
2023/10/17 18:26:33;;;;;;;;;;;;;;;;;;112646;211;41700;-35
2023/10/17 18:29:11;;;;;;;;;;;;;;;;;;112530;211;39054;-35
2023/10/17 18:31:46;;;;;;;;;;;;;;;;;;112579;211;39565;-37
2023/10/17 18:34:21;;;;;;;;;;;;;;;;;;112595;211;42880;-37
2023/10/17 18:37:00;;;;;;;;;;;;;;;;;;112602;211;41673;-37
2023/10/17 18:39:32;;;;;;;;;;;;;;;;;;112558;211;38719;-37
2023/10/17 18:42:06;;;;;;;;;;;;;;;;;;112472;211;175636;-37
2023/10/17 18:44:42;;;;;;;;;;;;;;;;;;112608;211;42970;-37
2023/10/17 18:47:19;;;;;;;;;;;;;;;;;;112576;211;41773;-37
2023/10/17 18:49:56;;;;;;;;;;;;;;;;;;112651;211;39019;-37
2023/10/17 18:52:32;;;;;;;;;;;;;;;;;;112655;211;40661;-37
2023/10/17 18:55:11;;;;;;;;;;;;;;;;;;112532;211;42967;-37
2023/10/17 18:57:47;;;;;;;;;;;;;;;;;;112555;211;41655;-37
2023/10/17 19:00:22;;;;;;;;;;;;;;;;;;112559;211;38696;-37
2023/10/17 19:02:56;;;;;;;;;;;;;;;;;;112630;211;39651;-37
2023/10/17 19:05:29;;;;;;;;;;;;;;;;;;112566;211;44946;-37
2023/10/17 19:08:04;;;;;;;;;;;;;;;;;;112583;211;41634;-37